createdAt,value
2023-07-20T00:03:26.415Z,99898.63
2023-07-20T00:08:28.449Z,99896.13
2023-07-20T00:13:30.188Z,99908.00
2023-07-20T00:18:31.857Z,99901.75
2023-07-20T00:23:36.076Z,99912.38
2023-07-20T00:28:38.238Z,99892.34
2023-07-20T00:33:39.672Z,99893.19
2023-07-20T00:38:42.043Z,99889.84
2023-07-20T00:43:43.700Z,99894.03
2023-07-20T00:48:45.854Z,99889.25
2023-07-20T00:53:47.588Z,99901.94
2023-07-20T00:58:50.061Z,99900.47
2023-07-20T01:03:51.576Z,99896.09
2023-07-20T01:09:10.634Z,99907.78
2023-07-20T01:14:13.064Z,99915.47
2023-07-20T01:19:15.914Z,99906.50
2023-07-20T01:24:39.196Z,99901.31
2023-07-20T01:29:53.152Z,99913.16
2023-07-20T01:34:56.660Z,99900.25
2023-07-20T01:39:59.368Z,99905.88
2023-07-20T01:45:00.887Z,99911.25
2023-07-20T01:50:02.366Z,99900.59
2023-07-20T01:55:05.735Z,99919.59
2023-07-20T02:00:08.275Z,99915.63
2023-07-20T02:05:12.271Z,99913.31
2023-07-20T02:10:13.704Z,99904.34
2023-07-20T02:15:17.505Z,99916.00
2023-07-20T02:20:20.350Z,99915.91
2023-07-20T02:25:22.122Z,99920.69
2023-07-20T02:30:24.030Z,99915.25
2023-07-20T02:35:25.560Z,99911.44
2023-07-20T02:40:27.317Z,99921.47
2023-07-20T02:45:28.946Z,99923.69
2023-07-20T02:50:30.358Z,99914.78
2023-07-20T02:55:31.767Z,99919.56
2023-07-20T03:00:34.038Z,99910.22
2023-07-20T03:05:35.477Z,99914.63
2023-07-20T03:10:42.315Z,99917.47
2023-07-20T03:15:44.113Z,99922.19
2023-07-20T03:20:46.127Z,99922.41
2023-07-20T03:25:47.540Z,99916.09
2023-07-20T03:30:57.003Z,99922.59
2023-07-20T03:35:59.194Z,99918.63
2023-07-20T03:41:01.794Z,99928.22
2023-07-20T03:46:08.644Z,99915.75
2023-07-20T03:51:10.106Z,99920.13
2023-07-20T03:56:13.487Z,99918.28
2023-07-20T04:01:14.981Z,99933.22
2023-07-20T04:06:17.867Z,99924.91
2023-07-20T04:11:19.530Z,99925.31
2023-07-20T04:16:21.910Z,99931.13
2023-07-20T04:21:25.160Z,99925.72
2023-07-20T04:26:26.579Z,99935.31
2023-07-20T04:31:28.198Z,99927.72
2023-07-20T04:36:29.695Z,99936.22
2023-07-20T04:41:33.654Z,99936.81
2023-07-20T04:46:36.165Z,99952.72
2023-07-20T04:51:37.629Z,99947.03
2023-07-20T04:56:39.848Z,99946.59
2023-07-20T05:01:43.114Z,99951.94
2023-07-20T05:06:44.858Z,99949.81
2023-07-20T05:11:49.219Z,99956.91
2023-07-20T05:16:51.099Z,99961.94
2023-07-20T05:21:52.946Z,99965.66
2023-07-20T05:26:55.675Z,99971.72
2023-07-20T05:31:57.843Z,99964.69
2023-07-20T05:36:59.566Z,99965.75
2023-07-20T05:42:01.293Z,99965.19
2023-07-20T05:47:03.760Z,99969.16
2023-07-20T05:52:06.268Z,99968.72
2023-07-20T05:57:08.299Z,99970.47
2023-07-20T06:02:10.267Z,99973.81
2023-07-20T06:07:11.947Z,99969.50
2023-07-20T06:12:13.719Z,99983.94
2023-07-20T06:17:15.735Z,99992.25
2023-07-20T06:22:17.501Z,99999.53
2023-07-20T06:27:19.022Z,99997.03
2023-07-20T06:32:20.552Z,100004.09
2023-07-20T06:37:22.257Z,100001.13
2023-07-20T06:43:48.613Z,100002.75
2023-07-20T06:47:48.610Z,100011.19
2023-07-20T06:52:50.178Z,100012.41
2023-07-20T06:57:52.870Z,100005.59
2023-07-20T07:02:54.602Z,100005.97
2023-07-20T07:07:56.057Z,100019.50
2023-07-20T07:12:57.740Z,100015.81
2023-07-20T07:18:00.770Z,100016.06
2023-07-20T07:23:02.301Z,100023.19
2023-07-20T07:28:05.340Z,100017.41
2023-07-20T07:33:06.908Z,100012.97
2023-07-20T07:38:19.360Z,100027.88
2023-07-20T07:43:30.226Z,100019.66
2023-07-20T07:48:31.800Z,100018.13
2023-07-20T07:53:33.898Z,100020.66
2023-07-20T07:58:35.669Z,100018.13
2023-07-20T08:03:38.648Z,100021.75
2023-07-20T08:08:40.406Z,100023.94
2023-07-20T08:13:43.582Z,100025.28
2023-07-20T08:18:45.698Z,100030.91
2023-07-20T08:23:47.363Z,100023.16
2023-07-20T08:28:49.300Z,100025.28
2023-07-20T08:33:51.672Z,100024.88
2023-07-20T08:38:53.506Z,100012.03
2023-07-20T08:43:56.455Z,100010.63
2023-07-20T08:48:58.861Z,100020.03
2023-07-20T08:54:01.924Z,100030.84
2023-07-20T08:59:03.990Z,100025.84
2023-07-20T09:04:05.935Z,100032.09
2023-07-20T09:09:07.425Z,100027.13
2023-07-20T09:14:10.698Z,100019.59
2023-07-20T09:19:12.073Z,100020.00
2023-07-20T09:24:14.101Z,100021.66
2023-07-20T09:29:19.477Z,100024.19
2023-07-20T09:54:39.798Z,100013.34
2023-07-20T09:59:42.161Z,100014.38
2023-07-20T10:04:44.871Z,100021.69
2023-07-20T10:09:47.037Z,100008.22
2023-07-20T10:15:02.015Z,100008.56
2023-07-20T10:20:06.435Z,100005.78
2023-07-20T10:25:08.492Z,99991.81
2023-07-20T10:30:10.678Z,99996.72
2023-07-20T10:35:17.234Z,99985.53
2023-07-20T10:40:35.316Z,99991.38
2023-07-20T10:45:39.762Z,99982.19
2023-07-20T10:50:41.680Z,99963.44
2023-07-20T10:55:45.030Z,99968.38
2023-07-20T11:01:04.778Z,99966.09
2023-07-20T11:06:24.969Z,99966.00
2023-07-20T11:11:28.955Z,99960.06
2023-07-20T11:16:39.147Z,99957.75
2023-07-20T11:21:59.704Z,99957.28
2023-07-20T11:27:03.866Z,99953.84
2023-07-20T11:32:06.477Z,99948.88
2023-07-20T11:42:14.019Z,99938.03
2023-07-20T11:47:15.685Z,99947.28
2023-07-20T11:52:18.695Z,99942.63
2023-07-20T11:57:21.915Z,99942.66
2023-07-20T12:02:27.406Z,99931.31
2023-07-20T12:07:30.107Z,99937.00
2023-07-20T12:12:45.381Z,99924.94
2023-07-20T12:17:51.534Z,99919.34
2023-07-20T12:22:54.346Z,99916.72
2023-07-20T12:27:56.309Z,99917.34
2023-07-20T12:32:58.410Z,99908.25
2023-07-20T12:38:00.980Z,99911.25
2023-07-20T12:43:03.086Z,99908.91
2023-07-20T12:48:04.830Z,99894.03
2023-07-20T12:53:06.357Z,99893.66
2023-07-20T12:58:09.180Z,99884.53
2023-07-20T13:03:10.766Z,99892.75
2023-07-20T13:08:31.352Z,99872.69
2023-07-20T13:13:34.903Z,99871.91
2023-07-20T13:18:37.939Z,99877.50
2023-07-20T13:23:39.707Z,99861.13
2023-07-20T13:28:41.741Z,99855.53
2023-07-20T13:33:43.311Z,99853.66
2023-07-20T13:38:44.761Z,99847.72
2023-07-20T13:43:46.659Z,99845.34
2023-07-20T13:53:56.819Z,99852.22
2023-07-20T13:58:59.281Z,99834.28
2023-07-20T14:04:05.102Z,99839.19
2023-07-20T14:09:07.564Z,99839.28
2023-07-20T14:14:09.115Z,99836.81
2023-07-20T14:24:12.992Z,99834.88
2023-07-20T14:29:14.518Z,99828.47
2023-07-20T14:34:16.506Z,99818.78
2023-07-20T14:39:18.792Z,99828.34
2023-07-20T14:44:21.826Z,99819.78
2023-07-20T14:49:23.400Z,99821.97
2023-07-20T14:54:25.119Z,99818.81
2023-07-20T14:59:26.822Z,99810.31
2023-07-20T15:04:29.194Z,99810.25
2023-07-20T15:09:30.706Z,99811.78
2023-07-20T15:14:32.236Z,99799.53
2023-07-20T15:19:35.471Z,99793.28
2023-07-20T15:24:37.500Z,99798.84
2023-07-20T15:29:38.992Z,99792.91
2023-07-20T15:34:40.380Z,99796.94
2023-07-20T15:39:42.834Z,99786.16
2023-07-20T15:44:44.303Z,99787.28
2023-07-20T15:49:46.839Z,99782.31
2023-07-20T15:54:49.000Z,99782.81
2023-07-20T15:59:50.554Z,99780.50
2023-07-20T16:04:54.084Z,99778.19
2023-07-20T16:09:59.343Z,99771.81
2023-07-20T16:20:05.991Z,99761.31
2023-07-20T16:25:08.040Z,99760.84
2023-07-20T16:30:09.644Z,99758.88
2023-07-20T16:35:12.077Z,99751.53
2023-07-20T16:45:20.709Z,99744.34
2023-07-20T16:50:22.952Z,99743.28
2023-07-20T16:55:24.917Z,99747.31
2023-07-20T17:00:26.753Z,99746.09
2023-07-20T17:05:28.362Z,99748.94
2023-07-20T17:10:29.819Z,99749.38
2023-07-20T17:15:34.857Z,99743.03
2023-07-20T17:31:02.265Z,99749.09
2023-07-20T17:41:08.940Z,99743.44
2023-07-20T17:51:15.302Z,99746.16
2023-07-20T17:56:16.921Z,99737.41
2023-07-20T18:01:18.302Z,99737.75
2023-07-20T18:06:19.988Z,99730.28
2023-07-20T18:11:21.574Z,99730.38
2023-07-20T18:16:23.033Z,99736.03
2023-07-20T18:21:24.811Z,99733.47
2023-07-20T18:26:26.525Z,99733.25
2023-07-20T18:31:28.204Z,99736.41
2023-07-20T18:36:29.883Z,99739.38
2023-07-20T18:41:31.228Z,99740.47
2023-07-20T18:46:32.610Z,99733.84
2023-07-20T18:51:34.355Z,99729.72
2023-07-20T18:56:35.754Z,99736.91
2023-07-20T19:01:37.236Z,99736.31
2023-07-20T19:06:38.661Z,99738.88
2023-07-20T19:16:44.772Z,99753.78
2023-07-20T19:21:46.112Z,99751.28
2023-07-20T19:26:47.560Z,99752.41
2023-07-20T19:31:48.960Z,99754.53
2023-07-20T19:36:50.364Z,99763.56
2023-07-20T19:41:51.714Z,99763.38
2023-07-20T19:46:53.260Z,99764.63
2023-07-20T19:51:54.748Z,99765.28
2023-07-20T19:56:56.538Z,99775.19
2023-07-20T20:01:57.987Z,99771.59
2023-07-20T20:07:00.889Z,99778.78
2023-07-20T20:12:02.242Z,99772.69
2023-07-20T20:17:04.706Z,99767.13
2023-07-20T20:22:07.359Z,99760.66
2023-07-20T20:27:08.701Z,99762.13
2023-07-20T20:32:11.906Z,99762.53
2023-07-20T20:37:13.235Z,99762.75
2023-07-20T20:42:15.327Z,99758.00
2023-07-20T20:47:16.672Z,99756.75
2023-07-20T20:52:18.336Z,99757.81
2023-07-20T20:57:19.853Z,99754.69
2023-07-20T21:02:21.594Z,99753.66
2023-07-20T21:07:23.154Z,99744.94
2023-07-20T21:12:24.530Z,99744.31
2023-07-20T21:17:27.521Z,99743.69
2023-07-20T21:22:29.068Z,99745.38
2023-07-20T21:27:30.406Z,99735.81
2023-07-20T21:32:31.844Z,99737.28
2023-07-20T21:37:33.318Z,99747.53
2023-07-20T21:42:34.774Z,99743.75
2023-07-20T21:47:36.259Z,99752.09
2023-07-20T21:52:37.692Z,99738.75
2023-07-20T21:57:39.041Z,99739.19
2023-07-20T22:02:40.730Z,99732.56
2023-07-20T22:07:42.447Z,99732.97
2023-07-20T22:12:43.841Z,99727.94
2023-07-20T22:17:45.256Z,99725.88
2023-07-20T22:22:46.671Z,99728.00
2023-07-20T22:27:48.352Z,99731.53
2023-07-20T22:32:49.727Z,99730.09
2023-07-20T22:37:51.562Z,99728.44
2023-07-20T22:42:53.028Z,99728.44
2023-07-20T22:47:54.767Z,99726.34
2023-07-20T22:52:56.265Z,99723.00
2023-07-20T22:57:59.358Z,99722.78
2023-07-20T23:03:00.856Z,99723.22
2023-07-20T23:08:02.345Z,99723.00
2023-07-20T23:13:03.650Z,99704.69
2023-07-20T23:18:05.059Z,99692.59
2023-07-20T23:23:06.608Z,99704.09
2023-07-20T23:28:08.075Z,99701.19
2023-07-20T23:33:10.251Z,99703.69
2023-07-20T23:38:12.225Z,99702.25
2023-07-20T23:43:13.710Z,99705.16
2023-07-20T23:48:15.110Z,99709.72
2023-07-20T23:53:16.433Z,99691.41
2023-07-20T23:58:17.747Z,99696.41
